Time;durP1;ratioP1;P1;durP2;ratioP2;P2;SDS_P1;SDS_P2;PMS_P1;PMS_P2;Temp;Humidity;BMP_temperature;BMP_pressure;BME280_temperature;BME280_humidity;BME280_pressure;Samples;Min_cycle;Max_cycle;Signal;HPM_P1;HPM_P2
2023/08/21 00:01:49;;;;;;;17.42;6.38;;;;;;;;;;5004924;28;20128;-76
2023/08/21 00:04:16;;;;;;;13.25;5.80;;;;;;;;;;4989381;28;20034;-77
2023/08/21 00:06:42;;;;;;;14.30;5.97;;;;;;;;;;5007060;28;20060;-76
2023/08/21 00:09:08;;;;;;;16.67;6.30;;;;;;;;;;5014748;28;20854;-76
2023/08/21 00:11:35;;;;;;;15.00;5.90;;;;;;;;;;5021563;28;20018;-77
2023/08/21 00:14:01;;;;;;;12.32;5.45;;;;;;;;;;5003660;28;20026;-77
2023/08/21 00:16:28;;;;;;;15.40;5.80;;;;;;;;;;5010419;28;20026;-75
2023/08/21 00:18:54;;;;;;;9.73;5.28;;;;;;;;;;5003103;28;20037;-76
2023/08/21 00:21:20;;;;;;;14.10;6.20;;;;;;;;;;5006714;28;20026;-76
2023/08/21 00:23:47;;;;;;;12.93;6.47;;;;;;;;;;5008884;28;20030;-76
2023/08/21 00:26:13;;;;;;;18.63;7.40;;;;;;;;;;5006754;28;20734;-77
2023/08/21 00:28:39;;;;;;;18.95;6.50;;;;;;;;;;5003418;28;20065;-76
2023/08/21 00:31:06;;;;;;;13.93;5.60;;;;;;;;;;4989354;28;20044;-77
2023/08/21 00:33:32;;;;;;;18.63;7.80;;;;;;;;;;5009040;28;20029;-77
2023/08/21 00:36:00;;;;;;;13.23;6.03;;;;;;;;;;4995899;28;20250;-77
2023/08/21 00:38:27;;;;;;;14.48;6.05;;;;;;;;;;5007901;28;20041;-76
2023/08/21 00:40:53;;;;;;;14.88;6.70;;;;;;;;;;4991207;28;20173;-77
2023/08/21 00:43:19;;;;;;;13.55;5.40;;;;;;;;;;4991696;28;20506;-76
2023/08/21 00:45:47;;;;;;;20.10;5.93;;;;;;;;;;5006970;28;20072;-77
2023/08/21 00:48:13;;;;;;;12.25;6.32;;;;;;;;;;5006885;28;20027;-78
2023/08/21 00:50:42;;;;;;;12.95;5.05;;;;;;;;;;5015600;28;20034;-75
2023/08/21 00:53:08;;;;;;;14.10;5.13;;;;;;;;;;5020917;28;20034;-77
2023/08/21 00:55:35;;;;;;;17.20;5.50;;;;;;;;;;5005743;28;20022;-76
2023/08/21 00:58:03;;;;;;;15.00;5.47;;;;;;;;;;5007133;28;21290;-77
2023/08/21 01:00:30;;;;;;;16.15;5.40;;;;;;;;;;5007416;28;20049;-76
2023/08/21 01:02:56;;;;;;;12.82;6.15;;;;;;;;;;4988817;28;20124;-76
2023/08/21 01:05:23;;;;;;;15.77;6.15;;;;;;;;;;5007655;28;21605;-76
2023/08/21 01:07:53;;;;;;;15.02;6.57;;;;;;;;;;5005753;28;20088;-76
2023/08/21 01:10:23;;;;;;;11.47;5.67;;;;;;;;;;5005040;28;20088;-76
2023/08/21 01:12:52;;;;;;;15.00;6.05;;;;;;;;;;5004528;28;20042;-76
2023/08/21 01:15:18;;;;;;;10.40;5.70;;;;;;;;;;5007212;28;20030;-76
2023/08/21 01:17:45;;;;;;;15.35;6.57;;;;;;;;;;5003475;28;20510;-77
2023/08/21 01:20:12;;;;;;;13.77;5.63;;;;;;;;;;5006631;28;20375;-76
2023/08/21 01:22:49;;;;;;;14.05;6.45;;;;;;;;;;5006435;28;20123;-77
2023/08/21 01:25:16;;;;;;;16.77;6.50;;;;;;;;;;4986706;28;20030;-74
2023/08/21 01:27:43;;;;;;;14.38;6.22;;;;;;;;;;5003932;28;20622;-75
2023/08/21 01:30:09;;;;;;;17.45;6.35;;;;;;;;;;5008954;28;20042;-77
2023/08/21 01:32:52;;;;;;;12.40;6.55;;;;;;;;;;4997469;28;20049;-76
2023/08/21 01:35:18;;;;;;;15.25;5.80;;;;;;;;;;4986259;28;20117;-76
2023/08/21 01:37:45;;;;;;;10.48;6.47;;;;;;;;;;5005631;28;20080;-77
2023/08/21 01:40:11;;;;;;;10.70;5.95;;;;;;;;;;5007189;28;20153;-76
2023/08/21 01:42:38;;;;;;;15.75;6.80;;;;;;;;;;5003612;28;20165;-77
2023/08/21 01:45:05;;;;;;;12.80;6.20;;;;;;;;;;4990562;28;20026;-77
2023/08/21 01:47:31;;;;;;;11.77;6.00;;;;;;;;;;4989506;28;20439;-76
2023/08/21 01:49:57;;;;;;;12.77;5.93;;;;;;;;;;4988383;28;20153;-76
2023/08/21 01:52:23;;;;;;;8.88;5.55;;;;;;;;;;5009362;28;20042;-75
2023/08/21 01:54:51;;;;;;;13.20;5.90;;;;;;;;;;4990947;28;21198;-77
2023/08/21 01:57:17;;;;;;;15.05;6.40;;;;;;;;;;4988217;28;20054;-76
2023/08/21 01:59:43;;;;;;;14.30;7.03;;;;;;;;;;4974482;28;20030;-76
2023/08/21 02:02:11;;;;;;;12.90;7.07;;;;;;;;;;4988129;28;20551;-77
2023/08/21 02:04:37;;;;;;;18.55;7.75;;;;;;;;;;4980211;28;20029;-76
2023/08/21 02:07:03;;;;;;;19.88;8.10;;;;;;;;;;5004951;28;20018;-76
2023/08/21 02:09:29;;;;;;;15.98;7.68;;;;;;;;;;5019216;28;20122;-76
2023/08/21 02:11:56;;;;;;;9.70;6.70;;;;;;;;;;4989986;28;20037;-76
2023/08/21 02:14:22;;;;;;;18.02;7.78;;;;;;;;;;5003788;28;20033;-76
2023/08/21 02:16:48;;;;;;;11.23;6.75;;;;;;;;;;4987572;28;20061;-77
2023/08/21 02:19:15;;;;;;;13.90;6.88;;;;;;;;;;4970808;28;20032;-76
2023/08/21 02:21:43;;;;;;;16.00;7.18;;;;;;;;;;5004120;28;20018;-76
2023/08/21 02:24:09;;;;;;;15.10;7.07;;;;;;;;;;4980969;28;20026;-76
2023/08/21 02:26:36;;;;;;;16.30;7.15;;;;;;;;;;5004290;28;20030;-77
2023/08/21 02:29:03;;;;;;;12.23;7.03;;;;;;;;;;4990451;28;20034;-77
2023/08/21 02:31:29;;;;;;;16.38;7.97;;;;;;;;;;5007777;28;20032;-77
2023/08/21 02:33:57;;;;;;;18.48;7.75;;;;;;;;;;5001689;28;20247;-77
2023/08/21 02:36:23;;;;;;;16.33;7.95;;;;;;;;;;4989069;28;20033;-76
2023/08/21 02:38:50;;;;;;;25.13;7.90;;;;;;;;;;4986297;28;20034;-76
2023/08/21 02:41:18;;;;;;;15.20;7.30;;;;;;;;;;4989305;28;20062;-76
2023/08/21 02:43:44;;;;;;;18.02;7.72;;;;;;;;;;5019555;28;20026;-76
2023/08/21 02:46:10;;;;;;;22.65;8.57;;;;;;;;;;4986162;28;20050;-77
2023/08/21 02:48:37;;;;;;;15.90;8.65;;;;;;;;;;5004857;28;20565;-77
2023/08/21 02:51:03;;;;;;;19.05;7.95;;;;;;;;;;5006072;28;20092;-78
2023/08/21 02:53:29;;;;;;;14.30;7.57;;;;;;;;;;5005745;28;20046;-76
2023/08/21 02:55:55;;;;;;;16.80;7.63;;;;;;;;;;4987075;28;20042;-76
2023/08/21 02:58:22;;;;;;;15.85;7.22;;;;;;;;;;5004155;28;20018;-76
2023/08/21 03:00:48;;;;;;;14.43;7.43;;;;;;;;;;4990225;28;20506;-76
2023/08/21 03:03:14;;;;;;;17.83;8.02;;;;;;;;;;5003015;28;20030;-76
2023/08/21 03:05:40;;;;;;;21.20;8.70;;;;;;;;;;4969597;28;20029;-76
2023/08/21 03:08:08;;;;;;;15.60;7.80;;;;;;;;;;4988190;28;20025;-77
2023/08/21 03:10:36;;;;;;;15.82;8.40;;;;;;;;;;5007699;28;20057;-77
2023/08/21 03:13:03;;;;;;;22.98;8.05;;;;;;;;;;5005069;28;20042;-78
2023/08/21 03:15:29;;;;;;;24.90;8.80;;;;;;;;;;4997386;28;20105;-75
2023/08/21 03:17:56;;;;;;;15.75;8.60;;;;;;;;;;4990174;28;20053;-77
2023/08/21 03:20:22;;;;;;;20.02;7.85;;;;;;;;;;4992402;28;20006;-76
2023/08/21 03:22:49;;;;;;;20.02;8.35;;;;;;;;;;5000772;28;20037;-76
2023/08/21 03:25:15;;;;;;;20.45;9.15;;;;;;;;;;5002641;28;20080;-77
2023/08/21 03:27:44;;;;;;;19.67;9.80;;;;;;;;;;4995203;28;20037;-77
2023/08/21 03:30:10;;;;;;;18.55;9.25;;;;;;;;;;5009652;28;20060;-75
2023/08/21 03:32:37;;;;;;;13.90;9.15;;;;;;;;;;5003516;28;20068;-76
2023/08/21 03:35:03;;;;;;;23.42;9.95;;;;;;;;;;5009516;28;20458;-79
2023/08/21 03:37:29;;;;;;;17.33;10.40;;;;;;;;;;5004926;28;20041;-76
2023/08/21 03:39:56;;;;;;;21.52;10.55;;;;;;;;;;4988998;28;20029;-77
2023/08/21 03:42:22;;;;;;;16.33;9.93;;;;;;;;;;4988241;28;20033;-77
2023/08/21 03:44:50;;;;;;;15.85;8.90;;;;;;;;;;4989933;28;20096;-77
2023/08/21 03:47:16;;;;;;;17.45;8.93;;;;;;;;;;5004163;28;20050;-77
2023/08/21 03:49:50;;;;;;;20.65;9.25;;;;;;;;;;5005420;28;20030;-77
2023/08/21 03:52:18;;;;;;;20.27;8.38;;;;;;;;;;4986316;28;20636;-76
2023/08/21 03:54:44;;;;;;;18.85;9.20;;;;;;;;;;5003463;28;20103;-76
2023/08/21 03:57:10;;;;;;;18.35;8.85;;;;;;;;;;5003077;28;20057;-74
2023/08/21 03:59:37;;;;;;;23.95;9.63;;;;;;;;;;4993763;28;20026;-75
2023/08/21 04:02:03;;;;;;;16.63;7.38;;;;;;;;;;4987680;28;20403;-81
2023/08/21 04:04:29;;;;;;;18.58;7.95;;;;;;;;;;5017253;28;20135;-77
2023/08/21 04:06:55;;;;;;;21.92;7.50;;;;;;;;;;4999112;28;20495;-77
2023/08/21 04:09:23;;;;;;;19.08;8.55;;;;;;;;;;5007252;28;20660;-76
2023/08/21 04:11:50;;;;;;;23.27;8.15;;;;;;;;;;5006770;28;20026;-77
2023/08/21 04:14:16;;;;;;;14.57;7.63;;;;;;;;;;5007984;28;20030;-77
2023/08/21 04:16:42;;;;;;;19.17;8.23;;;;;;;;;;5007093;28;20057;-77
2023/08/21 04:19:08;;;;;;;17.30;8.80;;;;;;;;;;5006319;28;20026;-78
2023/08/21 04:21:34;;;;;;;14.80;7.78;;;;;;;;;;4990216;28;20038;-77
2023/08/21 04:24:00;;;;;;;14.48;7.95;;;;;;;;;;5006812;28;20108;-79
2023/08/21 04:26:27;;;;;;;20.70;8.85;;;;;;;;;;4993017;28;20029;-77
2023/08/21 04:28:53;;;;;;;16.65;9.50;;;;;;;;;;4991389;28;20195;-77
2023/08/21 04:31:19;;;;;;;16.30;9.02;;;;;;;;;;4992185;28;20549;-77
2023/08/21 04:33:48;;;;;;;19.70;8.55;;;;;;;;;;4988806;28;20084;-76
2023/08/21 04:36:15;;;;;;;19.58;9.27;;;;;;;;;;4975401;28;20508;-76
2023/08/21 04:38:42;;;;;;;23.05;10.18;;;;;;;;;;5010288;28;20062;-75
2023/08/21 04:41:09;;;;;;;13.50;8.30;;;;;;;;;;5020236;28;20030;-79
2023/08/21 04:43:37;;;;;;;21.92;8.80;;;;;;;;;;5007111;28;22258;-78
2023/08/21 04:46:06;;;;;;;20.55;9.80;;;;;;;;;;5002235;28;20049;-77
2023/08/21 04:48:34;;;;;;;15.18;9.32;;;;;;;;;;4994298;28;20046;-76
2023/08/21 04:51:01;;;;;;;15.38;8.80;;;;;;;;;;4971362;28;20892;-78
2023/08/21 04:53:29;;;;;;;19.00;9.07;;;;;;;;;;5008665;28;20018;-77
2023/08/21 04:55:55;;;;;;;22.85;10.05;;;;;;;;;;4973012;28;20031;-77
2023/08/21 04:58:21;;;;;;;27.88;9.75;;;;;;;;;;4991338;28;20480;-77
2023/08/21 05:00:47;;;;;;;19.85;9.20;;;;;;;;;;5004802;28;20062;-77
2023/08/21 05:03:13;;;;;;;15.40;8.13;;;;;;;;;;4973710;28;20121;-76
2023/08/21 05:05:52;;;;;;;21.27;8.65;;;;;;;;;;4987901;28;20077;-77
2023/08/21 05:08:19;;;;;;;18.40;10.05;;;;;;;;;;5007330;28;20018;-77
2023/08/21 05:10:45;;;;;;;15.25;8.18;;;;;;;;;;4991944;28;20056;-78
2023/08/21 05:13:11;;;;;;;17.58;8.48;;;;;;;;;;4983302;28;20038;-78
2023/08/21 05:15:39;;;;;;;20.25;8.85;;;;;;;;;;5010421;28;20591;-77
2023/08/21 05:18:05;;;;;;;23.70;10.02;;;;;;;;;;4966702;28;20041;-80
2023/08/21 05:20:31;;;;;;;18.40;9.32;;;;;;;;;;5000481;28;20127;-77
2023/08/21 05:22:58;;;;;;;20.85;8.07;;;;;;;;;;5021012;28;20045;-77
2023/08/21 05:25:24;;;;;;;12.95;7.10;;;;;;;;;;5006640;28;20077;-76
2023/08/21 05:27:51;;;;;;;15.05;7.63;;;;;;;;;;4999032;28;20024;-77
2023/08/21 05:30:17;;;;;;;16.42;7.32;;;;;;;;;;5011830;28;20058;-77
2023/08/21 05:32:43;;;;;;;17.52;7.15;;;;;;;;;;5010073;28;20037;-77
2023/08/21 05:35:10;;;;;;;8.75;5.32;;;;;;;;;;4990927;28;20038;-78
2023/08/21 05:37:37;;;;;;;13.48;5.25;;;;;;;;;;4990086;28;20041;-77
2023/08/21 05:40:03;;;;;;;16.25;5.90;;;;;;;;;;4990614;28;20558;-78
2023/08/21 05:42:30;;;;;;;10.27;5.10;;;;;;;;;;4991722;28;20022;-78
2023/08/21 05:44:58;;;;;;;9.13;4.03;;;;;;;;;;4989668;28;20042;-77
2023/08/21 05:47:26;;;;;;;9.73;3.90;;;;;;;;;;4988535;28;20056;-77
2023/08/21 05:49:53;;;;;;;6.65;3.45;;;;;;;;;;5002948;28;20057;-77
2023/08/21 05:52:19;;;;;;;10.90;3.58;;;;;;;;;;4990936;28;20029;-78
2023/08/21 05:54:46;;;;;;;9.13;2.75;;;;;;;;;;4972658;28;20034;-76
2023/08/21 05:57:12;;;;;;;7.70;2.58;;;;;;;;;;4994930;28;20471;-74
2023/08/21 05:59:43;;;;;;;7.78;2.72;;;;;;;;;;4993279;28;20033;-76
2023/08/21 06:02:10;;;;;;;5.22;2.80;;;;;;;;;;4996323;28;20045;-76
2023/08/21 06:04:38;;;;;;;8.95;2.83;;;;;;;;;;4998028;28;20041;-78
2023/08/21 06:07:04;;;;;;;8.93;2.72;;;;;;;;;;4979773;28;20037;-84
2023/08/21 06:09:31;;;;;;;8.98;2.70;;;;;;;;;;5008911;28;21779;-78
2023/08/21 06:11:57;;;;;;;11.95;3.20;;;;;;;;;;4988442;28;20406;-77
2023/08/21 06:14:28;;;;;;;9.38;3.25;;;;;;;;;;4988226;28;20033;-78
2023/08/21 06:17:03;;;;;;;8.82;3.22;;;;;;;;;;5004120;28;20034;-77
2023/08/21 06:19:30;;;;;;;9.70;3.67;;;;;;;;;;4994323;28;20037;-78
2023/08/21 06:21:56;;;;;;;7.47;3.05;;;;;;;;;;4988498;28;20061;-77
2023/08/21 06:24:22;;;;;;;7.18;2.90;;;;;;;;;;4991655;28;20034;-76
2023/08/21 06:26:53;;;;;;;10.88;4.35;;;;;;;;;;4982120;28;20030;-76
2023/08/21 06:29:20;;;;;;;6.35;3.03;;;;;;;;;;4977181;28;20030;-77
2023/08/21 06:31:47;;;;;;;9.50;3.85;;;;;;;;;;5009786;28;20037;-78
2023/08/21 06:34:13;;;;;;;13.25;4.10;;;;;;;;;;4972381;28;20026;-77
2023/08/21 06:36:39;;;;;;;13.32;3.58;;;;;;;;;;4996415;28;20053;-76
2023/08/21 06:39:05;;;;;;;11.02;4.50;;;;;;;;;;5009549;28;20140;-78
2023/08/21 06:41:31;;;;;;;12.45;3.75;;;;;;;;;;5007719;28;20042;-76
2023/08/21 06:43:58;;;;;;;14.45;4.25;;;;;;;;;;5009540;28;20503;-76
2023/08/21 06:46:27;;;;;;;23.50;4.93;;;;;;;;;;4986306;28;20376;-75
2023/08/21 06:48:53;;;;;;;7.72;3.60;;;;;;;;;;5010156;28;20030;-76
2023/08/21 06:51:20;;;;;;;11.85;4.13;;;;;;;;;;5019817;28;20038;-77
2023/08/21 06:53:46;;;;;;;8.30;3.80;;;;;;;;;;5002659;28;20113;-76
2023/08/21 06:56:12;;;;;;;10.43;4.28;;;;;;;;;;5015210;28;20026;-76
2023/08/21 06:58:38;;;;;;;14.52;3.97;;;;;;;;;;5008740;28;20053;-77
2023/08/21 07:01:04;;;;;;;12.43;4.22;;;;;;;;;;5008052;28;20096;-75
2023/08/21 07:03:32;;;;;;;16.48;4.93;;;;;;;;;;4991457;28;20037;-77
2023/08/21 07:05:58;;;;;;;14.38;4.90;;;;;;;;;;5009420;28;20029;-76
2023/08/21 07:08:25;;;;;;;14.48;4.13;;;;;;;;;;5010129;28;20042;-77
2023/08/21 07:10:51;;;;;;;14.35;4.65;;;;;;;;;;5008419;28;20038;-77
2023/08/21 07:13:18;;;;;;;13.38;4.20;;;;;;;;;;5011010;28;20021;-76
2023/08/21 07:15:44;;;;;;;17.30;4.68;;;;;;;;;;5009238;28;20061;-74
2023/08/21 07:18:10;;;;;;;16.20;4.22;;;;;;;;;;5008894;28;20145;-77
2023/08/21 07:20:36;;;;;;;11.02;4.15;;;;;;;;;;5008876;28;20092;-75
2023/08/21 07:23:02;;;;;;;10.55;4.18;;;;;;;;;;4984123;28;20062;-76
2023/08/21 07:25:28;;;;;;;12.40;3.90;;;;;;;;;;4989126;28;20053;-76
2023/08/21 07:27:56;;;;;;;18.17;4.60;;;;;;;;;;4973643;28;20302;-76
2023/08/21 07:30:22;;;;;;;12.05;4.55;;;;;;;;;;5001048;28;20038;-76
2023/08/21 07:32:48;;;;;;;11.73;3.78;;;;;;;;;;5020423;28;20034;-76
2023/08/21 07:35:15;;;;;;;13.70;4.07;;;;;;;;;;5023523;28;20094;-77
2023/08/21 07:37:45;;;;;;;14.13;3.25;;;;;;;;;;5022316;28;20101;-76
2023/08/21 07:40:11;;;;;;;15.90;4.20;;;;;;;;;;4997483;28;20466;-78
2023/08/21 07:42:38;;;;;;;14.32;4.15;;;;;;;;;;5013737;28;20079;-77
2023/08/21 07:45:04;;;;;;;21.05;3.40;;;;;;;;;;4993530;28;20026;-77
2023/08/21 07:47:31;;;;;;;15.18;5.10;;;;;;;;;;4995479;28;20294;-76
2023/08/21 07:49:57;;;;;;;35.80;9.05;;;;;;;;;;5011906;28;20113;-77
2023/08/21 07:52:24;;;;;;;52.55;12.32;;;;;;;;;;5013039;28;20089;-78
2023/08/21 07:54:53;;;;;;;16.63;3.40;;;;;;;;;;5011558;28;20081;-78
2023/08/21 07:57:19;;;;;;;15.15;3.28;;;;;;;;;;5012458;28;20046;-78
2023/08/21 07:59:45;;;;;;;11.95;2.97;;;;;;;;;;5013328;28;20114;-78
2023/08/21 08:02:13;;;;;;;16.90;3.45;;;;;;;;;;5012749;28;20053;-77
2023/08/21 08:04:40;;;;;;;39.25;9.00;;;;;;;;;;4995912;28;20092;-78
2023/08/21 08:07:06;;;;;;;15.18;3.40;;;;;;;;;;5011269;28;20115;-77
2023/08/21 08:09:32;;;;;;;11.93;3.08;;;;;;;;;;5014747;28;20045;-76
2023/08/21 08:11:58;;;;;;;14.30;2.85;;;;;;;;;;5003792;28;20077;-75
2023/08/21 08:14:25;;;;;;;10.68;3.08;;;;;;;;;;5028835;28;20080;-76
2023/08/21 08:16:51;;;;;;;10.13;2.50;;;;;;;;;;5009390;28;20077;-78
2023/08/21 08:19:17;;;;;;;10.48;2.65;;;;;;;;;;5003188;28;20025;-77
2023/08/21 08:21:43;;;;;;;12.27;2.63;;;;;;;;;;5009955;28;20109;-76
2023/08/21 08:24:09;;;;;;;13.13;2.83;;;;;;;;;;5012339;28;20105;-76
2023/08/21 08:26:36;;;;;;;40.22;8.60;;;;;;;;;;5011789;28;20030;-76
2023/08/21 08:29:02;;;;;;;12.90;2.88;;;;;;;;;;4994113;28;20038;-77
2023/08/21 08:31:28;;;;;;;15.65;3.13;;;;;;;;;;5012291;28;20077;-77
2023/08/21 08:33:55;;;;;;;14.80;2.75;;;;;;;;;;5012390;28;20080;-77
2023/08/21 08:36:21;;;;;;;9.55;2.10;;;;;;;;;;5010772;28;20057;-75
2023/08/21 08:38:47;;;;;;;6.53;1.88;;;;;;;;;;5009419;28;20029;-76
2023/08/21 08:41:28;;;;;;;10.82;2.10;;;;;;;;;;5011246;28;20053;-76
2023/08/21 08:43:58;;;;;;;14.63;2.10;;;;;;;;;;5010874;28;20602;-76
2023/08/21 08:46:25;;;;;;;8.38;1.67;;;;;;;;;;5010638;28;20094;-77
2023/08/21 08:48:54;;;;;;;12.25;2.40;;;;;;;;;;5011895;28;20045;-77
2023/08/21 08:51:21;;;;;;;11.37;1.90;;;;;;;;;;5011049;28;20084;-74
2023/08/21 08:53:48;;;;;;;32.00;3.58;;;;;;;;;;5015817;28;20060;-77
2023/08/21 08:56:14;;;;;;;13.55;2.63;;;;;;;;;;5022032;28;20100;-75
2023/08/21 08:58:42;;;;;;;14.30;2.28;;;;;;;;;;4997474;28;20038;-76
2023/08/21 09:01:10;;;;;;;11.43;2.63;;;;;;;;;;4996652;28;20086;-76
2023/08/21 09:03:37;;;;;;;11.40;2.78;;;;;;;;;;5004235;28;20511;-75
2023/08/21 09:06:06;;;;;;;11.23;3.00;;;;;;;;;;5008260;28;20056;-76
2023/08/21 09:08:32;;;;;;;13.43;2.50;;;;;;;;;;4989319;28;20042;-76
2023/08/21 09:11:02;;;;;;;10.05;2.38;;;;;;;;;;4990745;28;20415;-76
2023/08/21 09:13:28;;;;;;;10.95;2.47;;;;;;;;;;4990938;28;20176;-76
2023/08/21 09:15:56;;;;;;;12.07;3.20;;;;;;;;;;4990561;28;20483;-77
2023/08/21 09:18:22;;;;;;;9.63;2.58;;;;;;;;;;4993179;28;20041;-76
2023/08/21 09:20:49;;;;;;;11.23;3.08;;;;;;;;;;5009345;28;20041;-75
2023/08/21 09:23:16;;;;;;;11.00;2.50;;;;;;;;;;5003906;28;20112;-76
2023/08/21 09:25:44;;;;;;;9.10;2.53;;;;;;;;;;5007985;28;20034;-75
2023/08/21 09:28:10;;;;;;;11.40;2.50;;;;;;;;;;4993211;28;20343;-75
2023/08/21 09:30:46;;;;;;;8.32;2.13;;;;;;;;;;5008414;28;20038;-76
2023/08/21 09:33:13;;;;;;;7.93;2.03;;;;;;;;;;5014261;28;20077;-77
2023/08/21 09:35:41;;;;;;;9.13;2.30;;;;;;;;;;5017605;28;20042;-76
2023/08/21 09:38:09;;;;;;;9.65;2.10;;;;;;;;;;5017652;28;20072;-77
2023/08/21 09:40:35;;;;;;;10.85;2.40;;;;;;;;;;5011920;28;20046;-76
2023/08/21 09:43:04;;;;;;;10.38;2.28;;;;;;;;;;4991444;28;20057;-77
2023/08/21 09:45:31;;;;;;;11.45;2.35;;;;;;;;;;5008496;28;20156;-76
2023/08/21 09:47:58;;;;;;;7.82;2.13;;;;;;;;;;5006887;28;20050;-75
2023/08/21 09:50:25;;;;;;;10.80;1.88;;;;;;;;;;4970083;28;20030;-75
2023/08/21 09:52:52;;;;;;;6.57;1.80;;;;;;;;;;5000438;28;20040;-75
2023/08/21 09:55:18;;;;;;;5.25;1.60;;;;;;;;;;4990382;28;20048;-76
2023/08/21 09:57:44;;;;;;;7.43;1.95;;;;;;;;;;5003952;28;20037;-76
2023/08/21 10:00:20;;;;;;;7.35;1.73;;;;;;;;;;4995674;28;20038;-75
2023/08/21 10:02:49;;;;;;;6.38;1.63;;;;;;;;;;5004700;28;20054;-75
2023/08/21 10:05:19;;;;;;;7.97;2.25;;;;;;;;;;5008376;28;20042;-78
2023/08/21 10:07:48;;;;;;;10.88;2.42;;;;;;;;;;4992517;28;20038;-75
2023/08/21 10:10:15;;;;;;;10.65;2.50;;;;;;;;;;5010594;28;20056;-76
2023/08/21 10:12:41;;;;;;;9.38;2.10;;;;;;;;;;5017643;28;20057;-74
2023/08/21 10:15:11;;;;;;;5.78;1.65;;;;;;;;;;5004268;28;20064;-75
2023/08/21 10:17:38;;;;;;;9.23;1.85;;;;;;;;;;5020437;28;20034;-74
2023/08/21 10:20:07;;;;;;;7.10;2.08;;;;;;;;;;5011854;28;20050;-76
2023/08/21 10:22:48;;;;;;;12.85;2.33;;;;;;;;;;4976272;28;20133;-76
2023/08/21 10:25:22;;;;;;;12.60;2.38;;;;;;;;;;4991333;28;20479;-75
2023/08/21 10:27:53;;;;;;;11.15;2.10;;;;;;;;;;4988140;28;20399;-76
2023/08/21 10:30:24;;;;;;;6.45;1.98;;;;;;;;;;4978637;28;20032;-76
2023/08/21 10:32:51;;;;;;;6.78;1.70;;;;;;;;;;4992779;28;20160;-76
2023/08/21 10:35:24;;;;;;;10.48;2.40;;;;;;;;;;5009631;28;20054;-77
2023/08/21 10:38:07;;;;;;;8.35;1.92;;;;;;;;;;4976663;28;20050;-77
2023/08/21 10:40:34;;;;;;;6.85;2.35;;;;;;;;;;5011148;28;20133;-76
2023/08/21 10:43:00;;;;;;;9.48;2.45;;;;;;;;;;5011253;28;20057;-77
2023/08/21 10:45:26;;;;;;;5.50;1.63;;;;;;;;;;4993331;28;20091;-76
2023/08/21 10:47:52;;;;;;;7.55;1.77;;;;;;;;;;5008962;28;20069;-75
2023/08/21 10:50:19;;;;;;;5.60;1.52;;;;;;;;;;5001627;28;20030;-76
2023/08/21 10:52:45;;;;;;;7.15;1.75;;;;;;;;;;5024659;28;20057;-77
2023/08/21 10:55:12;;;;;;;10.43;2.42;;;;;;;;;;5006451;28;20202;-77
2023/08/21 10:57:41;;;;;;;8.93;2.00;;;;;;;;;;5014783;28;20550;-76
2023/08/21 11:00:11;;;;;;;10.07;1.88;;;;;;;;;;5011233;28;20133;-77
2023/08/21 11:02:42;;;;;;;7.10;1.90;;;;;;;;;;5011022;28;20022;-77
2023/08/21 11:05:08;;;;;;;5.53;1.52;;;;;;;;;;4993571;28;20076;-77
2023/08/21 11:07:39;;;;;;;7.90;2.05;;;;;;;;;;5010793;28;20080;-77
2023/08/21 11:10:08;;;;;;;7.93;1.98;;;;;;;;;;5011311;28;20053;-78
2023/08/21 11:12:35;;;;;;;10.23;1.80;;;;;;;;;;5014989;28;20064;-77
2023/08/21 11:15:04;;;;;;;6.10;1.40;;;;;;;;;;4997851;28;20033;-76
2023/08/21 11:17:30;;;;;;;7.30;1.60;;;;;;;;;;4980351;28;20769;-77
2023/08/21 11:19:57;;;;;;;7.70;1.48;;;;;;;;;;5013834;28;20049;-76
2023/08/21 11:22:30;;;;;;;9.18;1.67;;;;;;;;;;4996142;28;20267;-76
2023/08/21 11:24:56;;;;;;;6.63;1.65;;;;;;;;;;5014486;28;20139;-76
2023/08/21 11:27:22;;;;;;;5.13;1.58;;;;;;;;;;5021668;28;20032;-75
2023/08/21 11:29:49;;;;;;;10.18;2.38;;;;;;;;;;5011788;28;20029;-78
2023/08/21 11:32:17;;;;;;;13.23;1.80;;;;;;;;;;5011813;28;20045;-78
2023/08/21 11:34:48;;;;;;;5.97;1.48;;;;;;;;;;5022296;28;20033;-76
2023/08/21 11:37:14;;;;;;;;;;;;;;;;;;4981307;28;20488;-77
2023/08/21 11:39:42;;;;;;;7.15;1.70;;;;;;;;;;5014065;28;19913;-77
2023/08/21 11:42:12;;;;;;;7.22;1.30;;;;;;;;;;5013513;28;20040;-77
2023/08/21 11:44:38;;;;;;;;;;;;;;;;;;4996657;28;20511;-77
2023/08/21 11:47:04;;;;;;;11.18;2.08;;;;;;;;;;5014318;28;19925;-78
2023/08/21 11:49:30;;;;;;;7.45;2.15;;;;;;;;;;5013861;28;20038;-79
2023/08/21 11:51:56;;;;;;;5.80;1.60;;;;;;;;;;5013924;28;20094;-77
2023/08/21 11:54:22;;;;;;;8.25;1.70;;;;;;;;;;4992491;28;20034;-75
2023/08/21 11:56:49;;;;;;;5.47;1.58;;;;;;;;;;5007384;28;20097;-77
2023/08/21 11:59:24;;;;;;;6.30;1.92;;;;;;;;;;5013365;28;20095;-76
2023/08/21 12:01:51;;;;;;;8.82;1.80;;;;;;;;;;4997655;28;20184;-76
2023/08/21 12:04:18;;;;;;;8.38;1.85;;;;;;;;;;5020813;28;20022;-74
2023/08/21 12:06:47;;;;;;;8.95;2.20;;;;;;;;;;5012470;28;20073;-75
2023/08/21 12:09:13;;;;;;;11.80;2.10;;;;;;;;;;5026623;28;20044;-75
2023/08/21 12:11:39;;;;;;;5.88;1.80;;;;;;;;;;5017070;28;20304;-76
2023/08/21 12:14:06;;;;;;;5.50;1.70;;;;;;;;;;4995597;28;20205;-75
2023/08/21 12:16:32;;;;;;;7.55;2.05;;;;;;;;;;5012717;28;20037;-75
2023/08/21 12:18:58;;;;;;;10.27;1.90;;;;;;;;;;5013334;28;20104;-76
2023/08/21 12:21:25;;;;;;;9.80;1.73;;;;;;;;;;5012348;28;20188;-75
2023/08/21 12:23:51;;;;;;;6.43;1.58;;;;;;;;;;5012948;28;20109;-76
2023/08/21 12:26:20;;;;;;;8.05;1.83;;;;;;;;;;5012650;28;20022;-75
2023/08/21 12:28:50;;;;;;;10.15;1.88;;;;;;;;;;5009211;28;20068;-77
2023/08/21 12:31:18;;;;;;;5.35;1.63;;;;;;;;;;5013316;28;20073;-76
2023/08/21 12:33:44;;;;;;;6.10;1.63;;;;;;;;;;5013603;28;20036;-75
2023/08/21 12:36:10;;;;;;;9.57;2.00;;;;;;;;;;4996136;28;20042;-74
2023/08/21 12:38:36;;;;;;;6.68;1.75;;;;;;;;;;5013166;28;20033;-75
2023/08/21 12:41:02;;;;;;;6.95;1.55;;;;;;;;;;5014496;28;20038;-75
2023/08/21 12:43:29;;;;;;;7.28;2.03;;;;;;;;;;5018778;28;20122;-74
2023/08/21 12:45:56;;;;;;;6.50;1.30;;;;;;;;;;5000563;28;20395;-76
2023/08/21 12:48:22;;;;;;;8.00;1.80;;;;;;;;;;5012920;28;20046;-76
2023/08/21 12:50:48;;;;;;;8.27;2.17;;;;;;;;;;4989758;28;20747;-76
2023/08/21 12:53:14;;;;;;;6.50;1.70;;;;;;;;;;4985426;28;20042;-77
2023/08/21 12:55:40;;;;;;;4.15;1.30;;;;;;;;;;4996796;28;20044;-78
2023/08/21 12:58:06;;;;;;;6.30;1.40;;;;;;;;;;5010821;28;20038;-78
2023/08/21 13:00:33;;;;;;;8.38;1.70;;;;;;;;;;5006730;28;20045;-75
2023/08/21 13:02:59;;;;;;;7.68;1.30;;;;;;;;;;5010232;28;20022;-76
2023/08/21 13:05:25;;;;;;;4.43;1.15;;;;;;;;;;5008680;28;20324;-75
2023/08/21 13:07:51;;;;;;;6.40;1.52;;;;;;;;;;5008005;28;20103;-76
2023/08/21 13:10:17;;;;;;;7.10;1.95;;;;;;;;;;5009906;28;20038;-75
2023/08/21 13:12:43;;;;;;;5.70;1.08;;;;;;;;;;5009898;28;20030;-75
2023/08/21 13:15:10;;;;;;;8.43;1.85;;;;;;;;;;5014776;28;20091;-74
2023/08/21 13:17:36;;;;;;;9.80;1.90;;;;;;;;;;5020006;28;20026;-75
2023/08/21 13:20:03;;;;;;;5.75;1.50;;;;;;;;;;5018417;28;20103;-75
2023/08/21 13:22:44;;;;;;;6.50;1.60;;;;;;;;;;5010734;28;20531;-77
2023/08/21 13:25:10;;;;;;;4.97;1.33;;;;;;;;;;4990950;28;20025;-76
2023/08/21 13:27:36;;;;;;;7.75;1.30;;;;;;;;;;5011104;28;20102;-76
2023/08/21 13:30:03;;;;;;;5.65;1.63;;;;;;;;;;4987597;28;20038;-78
2023/08/21 13:32:30;;;;;;;5.45;1.40;;;;;;;;;;5007321;28;20277;-75
2023/08/21 13:34:56;;;;;;;5.53;2.08;;;;;;;;;;5010615;28;20229;-76
2023/08/21 13:37:23;;;;;;;5.40;1.50;;;;;;;;;;4959241;28;20042;-77
2023/08/21 13:39:49;;;;;;;11.38;2.55;;;;;;;;;;5010200;28;20046;-78
2023/08/21 13:42:16;;;;;;;9.75;3.08;;;;;;;;;;5011217;28;20061;-77
2023/08/21 13:44:42;;;;;;;8.38;1.70;;;;;;;;;;4993826;28;20030;-77
2023/08/21 13:47:09;;;;;;;4.97;1.52;;;;;;;;;;5012154;28;20040;-76
2023/08/21 13:49:35;;;;;;;6.80;1.52;;;;;;;;;;4998708;28;20456;-81
2023/08/21 13:52:01;;;;;;;7.07;1.40;;;;;;;;;;5003127;28;20040;-80
2023/08/21 13:54:27;;;;;;;8.75;1.77;;;;;;;;;;4984751;28;20033;-78
2023/08/21 13:56:53;;;;;;;7.22;1.80;;;;;;;;;;5005270;28;20467;-76
2023/08/21 13:59:19;;;;;;;9.50;1.67;;;;;;;;;;4984839;28;20064;-76
2023/08/21 14:01:46;;;;;;;8.32;1.75;;;;;;;;;;5008767;28;20038;-77
2023/08/21 14:04:13;;;;;;;6.63;2.17;;;;;;;;;;4990911;28;20033;-80
2023/08/21 14:06:39;;;;;;;6.95;1.63;;;;;;;;;;4996398;28;20419;-80
2023/08/21 14:09:05;;;;;;;7.15;1.67;;;;;;;;;;4997823;28;20129;-77
2023/08/21 14:11:31;;;;;;;8.30;1.80;;;;;;;;;;5009594;28;20026;-76
2023/08/21 14:13:57;;;;;;;7.38;1.50;;;;;;;;;;4992679;28;20053;-75
2023/08/21 14:16:24;;;;;;;5.93;1.25;;;;;;;;;;5003976;28;20083;-77
2023/08/21 14:18:50;;;;;;;6.68;1.50;;;;;;;;;;5010536;28;20034;-76
2023/08/21 14:21:16;;;;;;;5.03;1.55;;;;;;;;;;5008891;28;20112;-75
2023/08/21 14:23:42;;;;;;;5.15;1.52;;;;;;;;;;5014616;28;20037;-75
2023/08/21 14:26:08;;;;;;;6.53;1.40;;;;;;;;;;5018614;28;20094;-77
2023/08/21 14:28:35;;;;;;;10.20;1.70;;;;;;;;;;4977026;28;20107;-77
2023/08/21 14:31:01;;;;;;;5.40;1.25;;;;;;;;;;5003075;28;20042;-76
2023/08/21 14:33:27;;;;;;;7.20;1.52;;;;;;;;;;4994425;28;20074;-77
2023/08/21 14:35:53;;;;;;;9.60;2.03;;;;;;;;;;5008860;28;20069;-76